KSRQ/SRQ METAR and TAF weather

Enter ICAO airport designator
Station Type Date Time Source
KSRQ METAR 2021/09/23 22:53 UTC NOAA

KSRQ 232253Z 31007KT 10SM CLR 29/23 A2985 RMK AO2 SLP109 T02890233


Station Type Date Time Source
KSRQ Decoded METAR 2021/09/23 22:53 UTC NOAA

SARASOTA/BRADENTON INTERNATIONAL ., FL, United States (KSRQ) 27-24N 082-33W 18M
Sep 23, 2021 - 06:53 PM EDT / 2021.09.23 2253 UTC
Wind: from the NW (310 degrees) at 8 MPH (7 KT):0
Visibility: 10 mile(s):0
Sky conditions: clear
Temperature: 84.0 F (28.9 C)
Dew Point: 73.9 F (23.3 C)
Relative Humidity: 71%
Pressure (altimeter): 29.85 in. Hg (1010 hPa)
ob: KSRQ 232253Z 31007KT 10SM CLR 29/23 A2985 RMK AO2 SLP109 T02890233
cycle: 23

Station Type Date Time Source
KSRQ TAF 2021/09/23 18:46 UTC NOAA

TAF KSRQ 231743Z 2318/2418 30009KT P6SM SCT035 BKN050
FM240000 36006KT P6SM SCT040
FM240300 04005KT P6SM FEW035
FM241400 06007KT P6SM SCT050

Example: see airport list